Time;durP1;ratioP1;P1;durP2;ratioP2;P2;SDS_P1;SDS_P2;PMS_P1;PMS_P2;Temp;Humidity;BMP_temperature;BMP_pressure;BME280_temperature;BME280_humidity;BME280_pressure;Samples;Min_cycle;Max_cycle;Signal;HPM_P1;HPM_P2
2023/04/24 00:00:19;;;;;;;1.05;0.60;;;;;;;10.17;94.98;100036.84;4977133;28;96465;-31
2023/04/24 00:02:46;;;;;;;0.43;0.25;;;;;;;10.15;95.29;100036.13;4976835;28;97766;-32
2023/04/24 00:05:13;;;;;;;0.35;0.30;;;;;;;10.16;94.86;100031.59;4976302;28;100052;-30
2023/04/24 00:07:39;;;;;;;0.43;0.28;;;;;;;10.15;95.37;100035.25;4975114;28;100733;-32
2023/04/24 00:10:06;;;;;;;0.55;0.20;;;;;;;10.15;94.99;100030.72;4975381;28;96599;-30
2023/04/24 00:12:31;;;;;;;1.05;0.47;;;;;;;10.14;95.77;100038.94;4975565;28;96902;-30
2023/04/24 00:14:56;;;;;;;0.32;0.17;;;;;;;10.07;96.01;100033.09;4976312;28;99882;-30
2023/04/24 00:17:22;;;;;;;1.67;0.55;;;;;;;10.12;95.49;100032.78;4976072;28;99202;-30
2023/04/24 00:19:48;;;;;;;0.57;0.47;;;;;;;10.13;95.03;100034.50;4976244;28;97029;-30
2023/04/24 00:22:14;;;;;;;0.40;0.25;;;;;;;10.12;95.33;100036.34;4975106;28;96897;-30
2023/04/24 00:24:40;;;;;;;0.65;0.50;;;;;;;10.08;95.76;100031.25;4974602;28;100903;-32
2023/04/24 00:27:05;;;;;;;0.57;0.50;;;;;;;10.05;95.91;100024.22;4974671;28;101548;-30
2023/04/24 00:29:31;;;;;;;0.52;0.50;;;;;;;10.14;95.49;100034.38;4976293;28;96560;-30
2023/04/24 00:31:56;;;;;;;0.38;0.38;;;;;;;10.13;95.98;100026.38;4976854;28;96764;-30
2023/04/24 00:34:22;;;;;;;0.55;0.40;;;;;;;10.14;95.00;100028.13;4975492;28;98004;-31
2023/04/24 00:36:48;;;;;;;0.60;0.40;;;;;;;10.13;95.33;100040.78;4976268;28;99321;-31
2023/04/24 00:39:14;;;;;;;0.65;0.20;;;;;;;10.09;95.69;100033.00;4974336;28;96533;-30
2023/04/24 00:41:39;;;;;;;0.70;0.38;;;;;;;10.11;95.54;100034.63;4976101;28;96856;-31
2023/04/24 00:44:05;;;;;;;0.40;0.32;;;;;;;10.15;95.56;100035.25;4975199;28;99347;-30
2023/04/24 00:46:31;;;;;;;0.38;0.32;;;;;;;10.17;95.27;100042.28;4976037;28;98078;-30
2023/04/24 00:48:59;;;;;;;0.38;0.20;;;;;;;10.20;95.32;100036.66;4974839;28;96564;-30
2023/04/24 00:51:24;;;;;;;0.35;0.35;;;;;;;10.17;95.49;100031.44;4974599;28;96919;-30
2023/04/24 00:53:50;;;;;;;0.17;0.17;;;;;;;10.23;95.01;100037.41;4975652;28;99310;-30
2023/04/24 00:56:17;;;;;;;1.73;0.82;;;;;;;10.24;94.91;100039.13;4975670;28;99228;-30
2023/04/24 00:58:43;;;;;;;0.32;0.25;;;;;;;10.22;95.27;100028.41;4974722;28;96532;-30
2023/04/24 01:01:09;;;;;;;1.88;0.75;;;;;;;10.20;94.87;100038.47;4974983;28;96846;-30
2023/04/24 01:03:36;;;;;;;0.77;0.50;;;;;;;10.17;94.78;100030.59;4973839;28;100950;-30
2023/04/24 01:06:03;;;;;;;0.85;0.70;;;;;;;10.17;95.20;100036.00;4974177;28;101253;-30
2023/04/24 01:08:29;;;;;;;1.50;0.82;;;;;;;10.11;94.65;100028.34;4973844;28;96628;-30
2023/04/24 01:10:56;;;;;;;0.80;0.57;;;;;;;10.14;95.11;100031.69;4974526;28;96883;-30
2023/04/24 01:13:22;;;;;;;1.40;0.75;;;;;;;10.11;94.81;100029.22;4974167;28;100793;-30
2023/04/24 01:15:48;;;;;;;0.80;0.70;;;;;;;10.08;95.15;100032.16;4975475;28;97821;-30
2023/04/24 01:18:14;;;;;;;1.25;0.68;;;;;;;10.07;94.84;100026.84;4975498;28;96634;-31
2023/04/24 01:20:42;;;;;;;1.23;0.75;;;;;;;10.05;94.99;100028.78;4974318;28;96974;-32
2023/04/24 01:23:08;;;;;;;1.15;0.93;;;;;;;9.98;95.90;100028.34;4975063;28;99343;-30
2023/04/24 01:25:34;;;;;;;1.25;0.90;;;;;;;10.03;95.67;100034.28;4975669;28;97350;-30
2023/04/24 01:28:00;;;;;;;2.13;0.90;;;;;;;9.98;95.80;100031.06;4974249;28;96613;-30
2023/04/24 01:30:26;;;;;;;1.30;1.00;;;;;;;10.03;95.29;100031.59;4973929;28;96911;-30
2023/04/24 01:32:53;;;;;;;2.50;1.40;;;;;;;10.03;95.72;100033.44;4973022;28;101160;-31
2023/04/24 01:35:20;;;;;;;0.85;0.73;;;;;;;10.01;95.05;100033.56;4973227;28;100744;-30
2023/04/24 01:37:45;;;;;;;2.13;0.80;;;;;;;10.00;95.59;100027.25;4974145;28;96792;-30
2023/04/24 01:40:11;;;;;;;0.70;0.52;;;;;;;9.94;95.35;100029.56;4975691;28;96743;-30
2023/04/24 01:42:36;;;;;;;2.10;1.20;;;;;;;9.92;94.99;100036.94;4973651;28;100940;-30
2023/04/24 01:45:04;;;;;;;1.25;0.85;;;;;;;9.92;95.50;100036.94;4974787;28;99444;-32
2023/04/24 01:47:31;;;;;;;1.60;0.82;;;;;;;9.88;95.42;100041.69;4973910;28;96580;-30
2023/04/24 01:49:57;;;;;;;3.78;0.70;;;;;;;9.90;96.07;100036.19;4974208;28;96880;-31
2023/04/24 01:52:22;;;;;;;0.70;0.70;;;;;;;9.93;96.54;100038.66;4973167;28;100693;-30
2023/04/24 01:54:48;;;;;;;1.35;0.90;;;;;;;9.91;95.51;100027.06;4975047;28;97857;-30
2023/04/24 01:57:14;;;;;;;1.55;0.68;;;;;;;9.94;96.07;100035.00;4974807;28;96478;-30
2023/04/24 01:59:39;;;;;;;1.02;0.55;;;;;;;9.95;96.05;100050.22;4973725;28;96845;-29
2023/04/24 02:02:05;;;;;;;1.75;0.88;;;;;;;9.95;95.96;100034.84;4974583;28;97952;-31
2023/04/24 02:04:31;;;;;;;2.70;0.90;;;;;;;9.93;96.34;100027.81;4974664;28;99090;-31
2023/04/24 02:06:56;;;;;;;1.38;0.85;;;;;;;9.98;96.49;100028.34;4973675;28;96626;-31
2023/04/24 02:09:22;;;;;;;3.97;1.25;;;;;;;9.94;95.14;100016.91;4975162;28;96668;-30
2023/04/24 02:11:47;;;;;;;1.42;1.00;;;;;;;9.88;96.00;100024.59;4974791;28;97366;-30
2023/04/24 02:14:12;;;;;;;1.30;1.15;;;;;;;9.87;96.31;100017.47;4975296;28;97760;-30
2023/04/24 02:16:38;;;;;;;1.52;1.00;;;;;;;9.92;95.79;100020.69;4975046;28;96716;-30
2023/04/24 02:19:03;;;;;;;3.63;0.85;;;;;;;9.97;95.68;100018.53;4975093;28;96741;-30
2023/04/24 02:21:30;;;;;;;1.00;0.90;;;;;;;9.98;96.37;100022.94;4973915;28;99458;-30
2023/04/24 02:23:55;;;;;;;0.98;0.80;;;;;;;9.92;95.94;100016.16;4973178;28;100718;-30
2023/04/24 02:26:21;;;;;;;0.73;0.60;;;;;;;9.98;95.62;100018.38;4975160;28;96466;-31
2023/04/24 02:28:46;;;;;;;4.20;1.50;;;;;;;9.98;94.97;100020.25;4974981;28;96782;-30
2023/04/24 02:31:11;;;;;;;1.80;1.25;;;;;;;9.95;95.64;100017.75;4974132;28;101305;-30
2023/04/24 02:33:37;;;;;;;1.45;1.08;;;;;;;9.93;95.39;100017.88;4974022;28;97865;-30
2023/04/24 02:36:02;;;;;;;1.17;0.80;;;;;;;9.93;95.73;100033.25;4974702;28;96948;-30
2023/04/24 02:38:29;;;;;;;1.85;1.10;;;;;;;9.96;95.47;100031.19;4975096;28;96757;-31
2023/04/24 02:40:54;;;;;;;1.80;0.70;;;;;;;9.94;95.20;100035.84;4972880;28;100836;-31
2023/04/24 02:43:20;;;;;;;0.60;0.40;;;;;;;9.95;95.80;100037.56;4974048;28;99447;-30
2023/04/24 02:45:45;;;;;;;0.57;0.35;;;;;;;9.93;96.45;100033.25;4973974;28;97137;-30
2023/04/24 02:48:11;;;;;;;0.60;0.40;;;;;;;9.90;96.06;100031.63;4974816;28;96561;-31
2023/04/24 02:50:36;;;;;;;0.40;0.38;;;;;;;9.90;96.40;100028.91;4974490;28;97881;-30
2023/04/24 02:53:01;;;;;;;0.30;0.30;;;;;;;9.87;96.46;100034.56;4974148;28;98122;-29
2023/04/24 02:55:27;;;;;;;0.32;0.28;;;;;;;9.88;96.56;100040.81;4974616;28;96486;-31
2023/04/24 02:57:52;;;;;;;0.38;0.38;;;;;;;9.83;96.45;100034.88;4974579;28;96901;-30
2023/04/24 03:00:17;;;;;;;0.57;0.50;;;;;;;9.81;96.41;100034.13;4973489;28;116446;-30
2023/04/24 03:02:43;;;;;;;0.30;0.30;;;;;;;9.79;96.47;100031.53;4974725;28;99498;-30
2023/04/24 03:05:09;;;;;;;0.28;0.28;;;;;;;9.76;96.22;100024.50;4977747;28;96604;-30
2023/04/24 03:07:35;;;;;;;0.50;0.40;;;;;;;9.80;96.26;100035.97;4977736;28;96790;-31
2023/04/24 03:10:00;;;;;;;0.52;0.40;;;;;;;9.76;96.38;100043.41;4975601;28;101520;-30
2023/04/24 03:12:26;;;;;;;0.63;0.43;;;;;;;9.70;96.91;100041.16;4977586;28;97832;-30
2023/04/24 03:14:51;;;;;;;0.30;0.30;;;;;;;9.68;96.44;100047.66;4977551;28;96772;-30
2023/04/24 03:17:16;;;;;;;0.60;0.47;;;;;;;9.63;96.67;100047.09;4977770;28;96856;-30
2023/04/24 03:19:42;;;;;;;0.40;0.40;;;;;;;9.63;96.58;100039.88;4977182;28;99329;-32
2023/04/24 03:22:09;;;;;;;0.35;0.28;;;;;;;9.63;96.64;100031.78;4977476;28;97807;-30
2023/04/24 03:24:34;;;;;;;0.32;0.30;;;;;;;9.60;97.09;100037.38;4976005;28;96658;-32
2023/04/24 03:27:00;;;;;;;0.52;0.40;;;;;;;9.61;96.59;100039.13;4977686;28;96585;-30
2023/04/24 03:29:25;;;;;;;0.35;0.30;;;;;;;9.67;96.56;100044.06;4976871;28;99363;-30
2023/04/24 03:31:51;;;;;;;0.05;0.05;;;;;;;9.69;96.06;100038.56;4977006;28;97949;-31
2023/04/24 03:34:16;;;;;;;0.22;0.22;;;;;;;9.64;96.37;100038.03;4976474;28;96707;-30
2023/04/24 03:36:41;;;;;;;0.45;0.30;;;;;;;9.62;96.78;100040.84;4977273;28;96853;-31
2023/04/24 03:39:07;;;;;;;0.30;0.30;;;;;;;9.62;96.28;100038.13;4977195;28;97563;-30
2023/04/24 03:41:33;;;;;;;0.30;0.25;;;;;;;9.68;96.29;100036.84;4975578;28;100657;-30
2023/04/24 03:43:58;;;;;;;0.10;0.10;;;;;;;9.70;95.83;100043.00;4976796;28;96765;-30
2023/04/24 03:46:23;;;;;;;0.32;0.30;;;;;;;9.70;95.72;100033.06;4977444;28;96744;-30
2023/04/24 03:48:49;;;;;;;0.00;0.00;;;;;;;9.67;95.83;100030.56;4976667;28;99197;-30
2023/04/24 03:51:14;;;;;;;2.70;0.35;;;;;;;9.70;95.71;100043.00;4977147;28;97859;-30
2023/04/24 03:53:39;;;;;;;0.80;0.20;;;;;;;9.69;95.55;100043.97;4977167;28;96497;-30
2023/04/24 03:56:05;;;;;;;0.32;0.22;;;;;;;9.65;95.61;100035.19;4976988;28;96804;-31
2023/04/24 03:58:30;;;;;;;0.73;0.30;;;;;;;9.64;95.50;100033.47;4976240;28;97453;-30
2023/04/24 04:00:57;;;;;;;0.17;0.15;;;;;;;9.64;95.18;100027.22;4976653;28;97893;-31
2023/04/24 04:03:23;;;;;;;0.47;0.17;;;;;;;9.68;95.60;100037.72;4975471;28;96713;-31
2023/04/24 04:05:48;;;;;;;0.50;0.25;;;;;;;9.66;95.87;100036.09;4976772;28;96825;-31
2023/04/24 04:08:13;;;;;;;0.45;0.20;;;;;;;9.68;95.51;100040.41;4975106;28;101285;-31
2023/04/24 04:10:39;;;;;;;0.10;0.10;;;;;;;9.69;95.74;100046.69;4976547;28;97794;-30
2023/04/24 04:13:06;;;;;;;0.68;0.32;;;;;;;9.70;95.59;100053.81;4976926;28;96459;-30
2023/04/24 04:15:31;;;;;;;0.35;0.10;;;;;;;9.65;95.57;100064.94;4976893;28;96810;-30
2023/04/24 04:17:56;;;;;;;0.10;0.10;;;;;;;9.68;95.74;100067.47;4976319;28;99717;-30
2023/04/24 04:20:22;;;;;;;0.65;0.40;;;;;;;9.67;95.59;100073.81;4976510;28;98021;-32
2023/04/24 04:22:47;;;;;;;0.08;0.08;;;;;;;9.67;95.05;100072.97;4976297;28;96465;-30
2023/04/24 04:25:13;;;;;;;1.17;0.30;;;;;;;9.67;95.43;100070.25;4976501;28;96805;-31
2023/04/24 04:27:39;;;;;;;0.57;0.40;;;;;;;9.65;95.22;100086.56;4975899;28;99161;-30
2023/04/24 04:30:05;;;;;;;0.13;0.13;;;;;;;9.66;95.40;100074.81;4974559;28;98934;-30
2023/04/24 04:32:33;;;;;;;0.63;0.38;;;;;;;9.61;95.64;100087.78;4976560;28;96381;-30
2023/04/24 04:35:02;;;;;;;0.45;0.38;;;;;;;9.63;95.67;100087.66;4974422;28;96995;-30
2023/04/24 04:37:28;;;;;;;0.77;0.43;;;;;;;9.61;95.85;100093.19;4974639;28;101090;-30
2023/04/24 04:39:54;;;;;;;0.10;0.10;;;;;;;9.57;96.44;100097.94;4976393;28;97375;-30
2023/04/24 04:42:19;;;;;;;0.25;0.20;;;;;;;9.53;96.74;100092.84;4975202;28;96705;-30
2023/04/24 04:44:45;;;;;;;0.17;0.15;;;;;;;9.50;96.70;100112.00;4976115;28;96868;-30
2023/04/24 04:47:10;;;;;;;0.38;0.30;;;;;;;9.48;97.29;100114.78;4975244;28;99267;-31
2023/04/24 04:49:38;;;;;;;0.10;0.10;;;;;;;9.41;98.08;100132.41;4975947;28;97467;-32
2023/04/24 04:52:03;;;;;;;0.68;0.28;;;;;;;9.37;98.85;100130.91;4974600;28;96889;-30
2023/04/24 04:54:29;;;;;;;0.17;0.17;;;;;;;9.42;99.02;100146.81;4976372;28;96815;-30
2023/04/24 04:56:54;;;;;;;0.40;0.38;;;;;;;9.40;98.91;100152.31;4975763;28;97952;-31
2023/04/24 04:59:20;;;;;;;1.05;0.57;;;;;;;9.38;99.05;100151.53;4975543;28;99081;-30
2023/04/24 05:01:45;;;;;;;2.83;0.40;;;;;;;9.34;98.76;100163.50;4975990;28;96497;-31
2023/04/24 05:04:10;;;;;;;1.42;0.60;;;;;;;9.29;99.20;100166.53;4976386;28;96826;-30
2023/04/24 05:06:36;;;;;;;0.75;0.28;;;;;;;9.30;98.48;100178.22;4975814;28;97447;-31
2023/04/24 05:09:01;;;;;;;3.50;0.73;;;;;;;9.29;98.54;100182.75;4975799;28;97877;-30
2023/04/24 05:11:28;;;;;;;0.65;0.50;;;;;;;9.23;98.65;100191.28;4975276;28;96778;-30
2023/04/24 05:13:54;;;;;;;1.40;0.82;;;;;;;9.22;98.69;100207.56;4975732;28;96826;-30
2023/04/24 05:16:19;;;;;;;3.50;1.05;;;;;;;9.16;98.66;100205.31;4975353;28;99380;-30
2023/04/24 05:18:44;;;;;;;4.05;1.65;;;;;;;9.06;98.28;100218.56;4975332;28;99153;-30
2023/04/24 05:21:10;;;;;;;2.33;1.58;;;;;;;9.00;98.63;100227.03;4975589;28;96517;-30
2023/04/24 05:23:35;;;;;;;1.50;1.17;;;;;;;9.00;99.09;100229.75;4975657;28;96866;-30
2023/04/24 05:26:01;;;;;;;2.85;1.60;;;;;;;8.96;99.03;100239.00;4974988;28;97859;-30
2023/04/24 05:28:28;;;;;;;5.03;1.92;;;;;;;8.93;99.12;100249.03;4975673;28;97781;-31
2023/04/24 05:30:55;;;;;;;3.33;1.20;;;;;;;8.95;99.53;100245.38;4975094;28;96474;-30
2023/04/24 05:33:21;;;;;;;4.68;1.50;;;;;;;8.95;99.05;100267.00;4974993;28;96840;-30
2023/04/24 05:35:47;;;;;;;5.45;1.52;;;;;;;8.91;99.30;100275.31;4973302;28;101176;-30
2023/04/24 05:38:13;;;;;;;2.28;1.67;;;;;;;8.87;98.99;100281.00;4975319;28;97901;-29
2023/04/24 05:40:39;;;;;;;3.42;1.63;;;;;;;8.87;98.94;100289.97;4975319;28;96549;-30
2023/04/24 05:43:04;;;;;;;5.50;1.58;;;;;;;8.80;98.93;100294.00;4973976;28;96834;-30
2023/04/24 05:45:29;;;;;;;1.88;1.23;;;;;;;8.79;99.07;100311.16;4974015;28;97905;-31
2023/04/24 05:47:55;;;;;;;5.95;1.80;;;;;;;8.75;98.74;100311.44;4974986;28;99299;-31
2023/04/24 05:50:20;;;;;;;1.92;1.52;;;;;;;8.77;98.85;100326.63;4974926;28;102247;-31
2023/04/24 05:52:46;;;;;;;5.38;2.28;;;;;;;8.72;98.22;100317.91;4975465;28;96761;-30
2023/04/24 05:55:11;;;;;;;2.97;1.67;;;;;;;8.73;98.44;100326.91;4974742;28;97921;-30
2023/04/24 05:57:36;;;;;;;1.90;0.90;;;;;;;8.78;98.25;100331.03;4974815;28;99278;-30
2023/04/24 06:00:04;;;;;;;3.28;1.98;;;;;;;8.78;98.57;100346.38;4974763;28;96486;-31
2023/04/24 06:02:32;;;;;;;3.33;1.58;;;;;;;8.74;98.50;100345.69;4974957;28;96828;-30
2023/04/24 06:04:58;;;;;;;3.25;1.60;;;;;;;8.75;98.43;100351.94;4973410;28;101201;-31
2023/04/24 06:07:25;;;;;;;1.63;1.33;;;;;;;8.76;98.61;100362.66;4973399;28;101407;-30
2023/04/24 06:09:51;;;;;;;3.60;1.30;;;;;;;8.77;98.50;100364.44;4973393;28;97543;-30
2023/04/24 06:12:16;;;;;;;2.95;1.50;;;;;;;8.76;98.80;100386.97;4974884;28;96853;-30
2023/04/24 06:14:41;;;;;;;4.15;1.40;;;;;;;8.73;98.54;100391.72;4974747;28;97491;-32
2023/04/24 06:17:07;;;;;;;3.60;1.60;;;;;;;8.74;98.97;100391.59;4975038;28;98142;-30
2023/04/24 06:19:32;;;;;;;4.72;1.23;;;;;;;8.75;98.80;100398.75;4974867;28;96541;-30
2023/04/24 06:21:57;;;;;;;1.92;1.33;;;;;;;8.81;98.71;100405.59;4975138;28;96649;-31
2023/04/24 06:24:27;;;;;;;2.97;1.17;;;;;;;8.78;98.53;100420.16;4974063;28;97417;-30
2023/04/24 06:26:52;;;;;;;3.33;1.33;;;;;;;8.75;98.41;100423.06;4973116;28;101011;-29
2023/04/24 06:29:18;;;;;;;2.38;1.33;;;;;;;8.77;98.64;100426.53;4975014;28;96527;-30
2023/04/24 06:31:43;;;;;;;2.85;1.27;;;;;;;8.76;98.26;100432.88;4974615;28;96836;-29
2023/04/24 06:34:08;;;;;;;1.52;0.85;;;;;;;8.76;98.13;100440.97;4973819;28;99276;-30
2023/04/24 06:36:35;;;;;;;3.42;1.08;;;;;;;8.76;97.91;100440.97;4974218;28;101908;-30
2023/04/24 06:39:01;;;;;;;7.70;1.13;;;;;;;8.71;97.65;100443.97;4975567;28;97359;-30
2023/04/24 06:41:26;;;;;;;3.28;1.05;;;;;;;8.74;97.35;100452.84;4977227;28;96906;-30
2023/04/24 06:43:51;;;;;;;3.08;1.20;;;;;;;8.71;97.47;100456.59;4977854;28;97523;-30
2023/04/24 06:46:17;;;;;;;1.63;0.88;;;;;;;8.75;97.41;100468.97;4977911;28;97753;-30
2023/04/24 06:48:42;;;;;;;2.83;1.08;;;;;;;8.75;96.74;100466.25;4976285;28;96704;-30
2023/04/24 06:51:07;;;;;;;3.63;0.95;;;;;;;8.74;96.94;100480.69;4977622;28;96616;-30
2023/04/24 06:53:33;;;;;;;3.15;1.05;;;;;;;8.71;97.06;100476.34;4977663;28;97874;-30
2023/04/24 06:55:58;;;;;;;1.88;0.98;;;;;;;8.65;96.94;100487.53;4978004;28;97782;-30
2023/04/24 06:58:25;;;;;;;4.32;1.13;;;;;;;8.66;97.07;100486.56;4978105;28;96496;-30
2023/04/24 07:00:50;;;;;;;4.40;1.20;;;;;;;8.69;97.25;100490.91;4976465;28;96791;-30
2023/04/24 07:03:15;;;;;;;2.95;1.00;;;;;;;8.73;97.24;100494.31;4977663;28;97322;-29
2023/04/24 07:05:41;;;;;;;3.13;1.13;;;;;;;8.72;97.16;100496.13;4977658;28;99412;-30
2023/04/24 07:08:07;;;;;;;5.93;1.55;;;;;;;8.75;97.22;100505.88;4977789;28;96686;-30
2023/04/24 07:10:33;;;;;;;1.27;0.88;;;;;;;8.74;97.47;100504.16;4977951;28;96840;-30
2023/04/24 07:12:59;;;;;;;3.03;1.13;;;;;;;8.76;96.55;100515.72;4975426;28;101290;-30
2023/04/24 07:15:24;;;;;;;3.10;0.93;;;;;;;8.77;96.84;100526.44;4977644;28;97813;-30
2023/04/24 07:17:50;;;;;;;1.35;0.88;;;;;;;8.79;96.65;100538.00;4977757;28;96474;-30
2023/04/24 07:20:15;;;;;;;2.03;0.85;;;;;;;8.71;96.29;100527.66;4977565;28;96935;-30
2023/04/24 07:22:41;;;;;;;1.70;0.45;;;;;;;8.77;96.16;100541.75;4977154;28;100096;-29
2023/04/24 07:25:07;;;;;;;0.77;0.50;;;;;;;8.80;95.99;100545.16;4977393;28;98000;-30
2023/04/24 07:27:33;;;;;;;0.82;0.60;;;;;;;8.77;95.98;100544.47;4976156;28;96515;-30
2023/04/24 07:29:58;;;;;;;2.95;0.85;;;;;;;8.75;95.52;100551.78;4977732;28;97088;-30
2023/04/24 07:32:24;;;;;;;1.48;0.60;;;;;;;8.79;95.02;100556.91;4977277;28;97909;-30
2023/04/24 07:34:49;;;;;;;0.93;0.52;;;;;;;8.74;94.23;100552.75;4976231;28;97741;-30
2023/04/24 07:37:14;;;;;;;2.92;0.70;;;;;;;8.78;93.59;100567.81;4975544;28;96485;-30
2023/04/24 07:39:40;;;;;;;3.67;0.70;;;;;;;8.74;92.97;100574.34;4975998;28;96882;-30
2023/04/24 07:42:05;;;;;;;4.53;0.68;;;;;;;8.76;93.41;100578.69;4974376;28;100730;-30
2023/04/24 07:44:32;;;;;;;1.20;0.52;;;;;;;8.77;93.40;100587.66;4975555;28;99107;-30
2023/04/24 07:46:57;;;;;;;0.75;0.47;;;;;;;8.75;92.75;100590.47;4976227;28;96517;-30
2023/04/24 07:49:22;;;;;;;4.38;0.70;;;;;;;8.75;92.53;100586.88;4975442;28;97845;-30
2023/04/24 07:51:49;;;;;;;1.33;0.60;;;;;;;8.75;92.71;100595.88;4975255;28;99878;-30
2023/04/24 07:54:14;;;;;;;3.03;0.60;;;;;;;8.77;92.53;100599.38;4974505;28;101141;-29
2023/04/24 07:56:42;;;;;;;1.38;0.63;;;;;;;8.78;92.59;100606.50;4976092;28;96668;-30
2023/04/24 07:59:09;;;;;;;1.77;0.70;;;;;;;8.77;92.05;100609.28;4974515;28;96832;-32
2023/04/24 08:01:34;;;;;;;0.50;0.40;;;;;;;8.75;91.41;100611.19;4973617;28;100939;-30
2023/04/24 08:04:00;;;;;;;0.70;0.57;;;;;;;8.70;90.69;100615.03;4975221;28;99211;-31
2023/04/24 08:06:29;;;;;;;2.85;0.47;;;;;;;8.72;90.56;100614.94;4975854;28;96671;-31
2023/04/24 08:08:55;;;;;;;0.60;0.60;;;;;;;8.75;90.87;100625.59;4975548;28;96541;-30
2023/04/24 08:11:20;;;;;;;0.93;0.55;;;;;;;8.79;90.71;100634.38;4975320;28;98014;-31
2023/04/24 08:13:46;;;;;;;2.28;0.70;;;;;;;8.80;90.35;100637.00;4975361;28;97859;-30
2023/04/24 08:16:11;;;;;;;2.20;0.60;;;;;;;8.78;89.82;100643.44;4975773;28;96635;-30
2023/04/24 08:18:36;;;;;;;0.93;0.70;;;;;;;8.78;89.61;100644.31;4975941;28;96870;-30
2023/04/24 08:21:02;;;;;;;3.25;0.77;;;;;;;8.71;88.09;100651.00;4975275;28;97943;-30
2023/04/24 08:23:29;;;;;;;0.30;0.30;;;;;;;8.69;88.03;100650.22;4974950;28;99085;-32
2023/04/24 08:25:54;;;;;;;1.77;0.45;;;;;;;8.68;88.15;100652.06;4974805;28;96483;-30
2023/04/24 08:28:20;;;;;;;1.42;0.77;;;;;;;8.73;87.18;100668.00;4975185;28;96609;-30
2023/04/24 08:30:47;;;;;;;4.07;0.88;;;;;;;8.76;87.11;100670.53;4974941;28;97912;-30
2023/04/24 08:33:12;;;;;;;0.40;0.30;;;;;;;8.75;86.07;100670.59;4973577;28;101435;-30
2023/04/24 08:35:38;;;;;;;1.10;0.75;;;;;;;8.75;85.35;100682.28;4932827;28;1248221;-31
2023/04/24 08:38:04;;;;;;;2.30;0.75;;;;;;;8.78;85.02;100690.22;4974691;28;96825;-30
2023/04/24 08:40:33;;;;;;;2.05;1.05;;;;;;;8.78;84.29;100687.50;4976336;28;97472;-29
2023/04/24 08:42:59;;;;;;;1.08;0.20;;;;;;;8.80;83.16;100690.13;4974941;28;100799;-30
2023/04/24 08:45:25;;;;;;;0.57;0.45;;;;;;;8.81;83.80;100689.16;4974806;28;96614;-29
2023/04/24 08:47:53;;;;;;;5.05;0.22;;;;;;;8.80;83.59;100703.63;4976016;28;96835;-30
2023/04/24 08:50:18;;;;;;;3.08;0.80;;;;;;;8.76;83.29;100704.75;4973697;28;101010;-30
2023/04/24 08:52:43;;;;;;;1.55;0.50;;;;;;;8.67;82.76;100712.41;4975736;28;97778;-30
2023/04/24 08:55:09;;;;;;;1.45;0.28;;;;;;;8.67;82.36;100720.50;4976359;28;96549;-30
2023/04/24 08:57:35;;;;;;;1.67;0.30;;;;;;;8.66;82.31;100717.91;4976316;28;96755;-30
2023/04/24 09:00:01;;;;;;;0.80;0.20;;;;;;;8.71;83.52;100718.53;4974045;28;100747;-29
2023/04/24 09:02:28;;;;;;;0.93;0.38;;;;;;;8.73;82.83;100722.00;4974845;28;97858;-33
2023/04/24 09:04:56;;;;;;;0.40;0.20;;;;;;;8.76;82.73;100716.44;4971813;28;96944;-31
2023/04/24 09:07:25;;;;;;;0.82;0.40;;;;;;;8.78;82.02;100714.53;4972523;28;97018;-30
2023/04/24 09:09:51;;;;;;;1.00;0.30;;;;;;;8.81;82.25;100713.47;4971999;28;101119;-30
2023/04/24 09:12:17;;;;;;;0.60;0.28;;;;;;;8.79;81.47;100715.38;4971646;28;102322;-30
2023/04/24 09:14:44;;;;;;;0.45;0.30;;;;;;;8.84;82.72;100726.78;4971381;28;97023;-31
2023/04/24 09:17:11;;;;;;;6.28;0.38;;;;;;;8.79;82.48;100739.69;4971793;28;97143;-34
2023/04/24 09:19:36;;;;;;;0.38;0.20;;;;;;;8.71;82.39;100740.13;4973583;28;100728;-30
2023/04/24 09:22:06;;;;;;;0.75;0.20;;;;;;;8.70;83.28;100744.66;4975278;28;99013;-30
2023/04/24 09:24:32;;;;;;;1.17;0.20;;;;;;;8.75;83.91;100747.09;4975532;28;96489;-30
2023/04/24 09:26:58;;;;;;;0.40;0.25;;;;;;;8.78;83.85;100751.47;4974292;28;96833;-30
2023/04/24 09:29:24;;;;;;;2.55;0.13;;;;;;;8.88;83.98;100758.94;4973931;28;101091;-29
2023/04/24 09:31:50;;;;;;;0.10;0.03;;;;;;;8.93;83.13;100756.00;4973876;28;100935;-30
2023/04/24 09:34:21;;;;;;;0.47;0.22;;;;;;;9.03;83.26;100762.59;4975077;28;96738;-29
2023/04/24 09:36:47;;;;;;;0.47;0.22;;;;;;;9.11;82.86;100756.78;4974256;28;96769;-30
2023/04/24 09:39:15;;;;;;;0.40;0.20;;;;;;;9.27;82.97;100757.66;4974846;28;97830;-30
2023/04/24 09:41:46;;;;;;;0.30;0.10;;;;;;;9.40;83.13;100759.66;4973719;28;101040;-30
2023/04/24 09:44:18;;;;;;;0.40;0.20;;;;;;;9.47;82.14;100751.09;4975383;28;96661;-30
2023/04/24 09:46:48;;;;;;;0.37;0.37;;;;;;;9.53;81.80;100760.66;4975716;28;96741;-30
2023/04/24 09:49:16;;;;;;;0.03;0.03;;;;;;;9.56;80.33;100763.22;4973709;28;100835;-30
2023/04/24 09:51:42;;;;;;;0.63;0.15;;;;;;;9.65;80.25;100767.19;4974684;28;99684;-30
2023/04/24 09:54:20;;;;;;;0.45;0.20;;;;;;;9.74;78.98;100783.72;4973884;28;96559;-31
2023/04/24 09:56:48;;;;;;;0.00;0.00;;;;;;;9.76;78.31;100781.81;4975569;28;96778;-31
2023/04/24 09:59:15;;;;;;;0.15;0.13;;;;;;;9.86;78.12;100781.28;4973483;28;101216;-30
2023/04/24 10:01:44;;;;;;;0.28;0.05;;;;;;;9.87;76.28;100781.19;4973460;28;100763;-30
2023/04/24 10:04:17;;;;;;;3.97;0.63;;;;;;;9.87;76.04;100799.25;4974607;28;96637;-30
2023/04/24 10:06:42;;;;;;;0.75;0.22;;;;;;;9.86;76.97;100786.69;4973809;28;96901;-30
2023/04/24 10:09:10;;;;;;;0.20;0.10;;;;;;;9.81;77.05;100777.97;4975020;28;97853;-33
2023/04/24 10:11:37;;;;;;;0.10;0.05;;;;;;;9.81;77.11;100794.19;4972990;28;100813;-30
2023/04/24 10:14:03;;;;;;;0.30;0.20;;;;;;;9.76;77.21;100795.34;4973839;28;96785;-30
2023/04/24 10:16:31;;;;;;;0.20;0.10;;;;;;;9.71;77.80;100792.03;4973638;28;96800;-30
2023/04/24 10:18:59;;;;;;;0.32;0.20;;;;;;;9.65;77.47;100803.19;4973310;28;101359;-31
2023/04/24 10:21:26;;;;;;;0.52;0.28;;;;;;;9.63;77.49;100815.06;4973648;28;100731;-30
2023/04/24 10:23:53;;;;;;;1.67;0.28;;;;;;;9.60;77.74;100818.81;4973294;28;96691;-30
2023/04/24 10:26:19;;;;;;;0.50;0.20;;;;;;;9.58;77.02;100818.03;4973494;28;96571;-30
2023/04/24 10:28:47;;;;;;;0.15;0.15;;;;;;;9.62;76.85;100818.75;4974254;28;97358;-30
2023/04/24 10:31:14;;;;;;;0.00;0.00;;;;;;;9.62;76.66;100816.91;4973076;28;101295;-30
2023/04/24 10:33:45;;;;;;;0.35;0.20;;;;;;;9.68;76.11;100823.81;4972785;28;96664;-30
2023/04/24 10:36:12;;;;;;;2.72;0.38;;;;;;;9.74;76.56;100824.31;5006715;28;97209;-31
2023/04/24 10:38:41;;;;;;;2.58;0.28;;;;;;;9.76;77.47;100822.38;4972772;28;98923;-31
2023/04/24 10:41:19;;;;;;;2.50;0.55;;;;;;;9.85;78.03;100814.72;4973000;28;100440;-30
2023/04/24 10:43:45;;;;;;;0.30;0.10;;;;;;;9.90;77.27;100820.72;4974686;28;96557;-30
2023/04/24 10:46:10;;;;;;;1.17;0.30;;;;;;;9.86;77.61;100824.56;4975253;28;96604;-30
2023/04/24 10:48:41;;;;;;;0.28;0.20;;;;;;;9.84;77.74;100821.06;4974197;28;99373;-30
2023/04/24 10:51:12;;;;;;;2.30;0.50;;;;;;;9.76;77.96;100827.78;4972560;28;100732;-30
2023/04/24 10:53:37;;;;;;;0.63;0.40;;;;;;;9.72;79.60;100844.28;4972867;28;96791;-32
2023/04/24 10:56:09;;;;;;;4.18;0.30;;;;;;;9.66;80.54;100840.13;4973548;28;96812;-31
2023/04/24 10:58:38;;;;;;;0.50;0.30;;;;;;;9.68;81.15;100854.44;4973041;28;99040;-32
2023/04/24 11:01:04;;;;;;;2.28;0.55;;;;;;;9.82;81.09;100850.03;4973591;28;97843;-30
2023/04/24 11:03:32;;;;;;;0.85;0.30;;;;;;;10.15;80.76;100845.34;4974413;28;96619;-29
2023/04/24 11:06:04;;;;;;;1.95;0.40;;;;;;;10.39;80.29;100848.44;4972955;28;96872;-30
2023/04/24 11:08:31;;;;;;;3.17;0.20;;;;;;;10.41;78.67;100854.63;4972882;28;100863;-30
2023/04/24 11:11:07;;;;;;;0.38;0.28;;;;;;;10.29;77.35;100852.66;4972978;28;100853;-30
2023/04/24 11:13:55;;;;;;;3.35;0.28;;;;;;;10.07;77.55;100869.28;4973035;28;96696;-31
2023/04/24 11:16:28;;;;;;;2.38;0.20;;;;;;;9.96;78.92;100872.63;4974496;28;96754;-30
2023/04/24 11:19:24;;;;;;;0.30;0.20;;;;;;;9.79;78.06;100879.00;4973526;28;99331;-31
2023/04/24 11:22:01;;;;;;;0.55;0.10;;;;;;;9.87;78.65;100886.69;4972338;28;100842;-29
2023/04/24 11:24:26;;;;;;;0.40;0.10;;;;;;;9.92;77.87;100881.03;4975084;28;97819;-30
2023/04/24 11:27:16;;;;;;;0.68;0.30;;;;;;;10.06;77.51;100882.91;4977430;28;96512;-30